Time;durP1;ratioP1;P1;durP2;ratioP2;P2;SDS_P1;SDS_P2;PMS_P1;PMS_P2;Temp;Humidity;BMP_temperature;BMP_pressure;BME280_temperature;BME280_humidity;BME280_pressure;Samples;Min_cycle;Max_cycle;Signal;HPM_P1;HPM_P2
2024/01/19 00:02:14;;;;;;;0.30;0.30;;;2.20;99.90;;;;;;5016329;28;20664;-87
2024/01/19 00:04:39;;;;;;;0.30;0.30;;;2.40;99.90;;;;;;5016084;28;20179;-87
2024/01/19 00:07:05;;;;;;;0.20;0.20;;;2.10;99.90;;;;;;5015648;28;20761;-86
2024/01/19 00:09:31;;;;;;;0.30;0.30;;;2.20;99.90;;;;;;4999608;28;20191;-87
2024/01/19 00:11:57;;;;;;;0.43;0.43;;;2.20;99.90;;;;;;4999823;28;20634;-87
2024/01/19 00:14:22;;;;;;;0.30;0.30;;;2.20;99.90;;;;;;5015525;28;20176;-86
2024/01/19 00:16:48;;;;;;;0.30;0.30;;;2.30;99.90;;;;;;4999471;28;20191;-87
2024/01/19 00:19:14;;;;;;;0.30;0.30;;;2.40;99.90;;;;;;5015720;28;20214;-87
2024/01/19 00:21:47;;;;;;;0.40;0.40;;;2.20;99.90;;;;;;5015781;28;20294;-86
2024/01/19 00:24:13;;;;;;;0.30;0.30;;;2.20;99.90;;;;;;4999643;28;20190;-86
2024/01/19 00:26:40;;;;;;;0.30;0.30;;;2.10;99.90;;;;;;5015396;28;20186;-86
2024/01/19 00:29:07;;;;;;;0.40;0.40;;;2.20;99.90;;;;;;5015552;28;20203;-86
2024/01/19 00:31:33;;;;;;;0.30;0.30;;;2.00;99.90;;;;;;5014661;28;20184;-85
2024/01/19 00:33:59;;;;;;;0.30;0.30;;;2.00;99.90;;;;;;5015662;28;20180;-84
2024/01/19 00:36:25;;;;;;;0.30;0.30;;;2.00;99.90;;;;;;4999419;28;20619;-85
2024/01/19 00:38:52;;;;;;;6.27;1.07;;;2.00;99.90;;;;;;5016333;28;20186;-87
2024/01/19 00:41:18;;;;;;;0.37;0.37;;;2.20;99.90;;;;;;5015086;28;20211;-85
2024/01/19 00:43:44;;;;;;;2.10;0.43;;;2.30;99.90;;;;;;5015382;28;20207;-84
2024/01/19 00:46:11;;;;;;;0.30;0.30;;;2.30;99.90;;;;;;4998678;28;20631;-86
2024/01/19 00:48:37;;;;;;;0.53;0.53;;;2.10;99.90;;;;;;5015392;28;20194;-86
2024/01/19 00:51:06;;;;;;;0.30;0.30;;;2.00;99.90;;;;;;5015093;28;20643;-86
2024/01/19 00:53:31;;;;;;;0.30;0.30;;;2.00;99.90;;;;;;4999040;28;20651;-86
2024/01/19 00:56:00;;;;;;;0.53;0.53;;;1.70;99.90;;;;;;4999339;28;20184;-86
2024/01/19 00:58:26;;;;;;;0.40;0.40;;;1.60;99.90;;;;;;5015087;28;20279;-85
2024/01/19 01:00:52;;;;;;;0.20;0.20;;;1.50;99.90;;;;;;5016346;28;20647;-86
2024/01/19 01:03:26;;;;;;;0.30;0.30;;;1.60;99.90;;;;;;5014659;28;20543;-86
2024/01/19 01:05:56;;;;;;;0.23;0.23;;;1.60;99.90;;;;;;5016114;28;20227;-85
2024/01/19 01:08:26;;;;;;;1.70;0.70;;;1.50;99.90;;;;;;5031555;28;20206;-85
2024/01/19 01:10:55;;;;;;;0.30;0.30;;;1.40;99.90;;;;;;5015696;28;20195;-85
2024/01/19 01:13:22;;;;;;;0.30;0.30;;;1.40;99.90;;;;;;4998856;28;20188;-86
2024/01/19 01:15:48;;;;;;;0.30;0.30;;;1.30;99.90;;;;;;5014983;28;20183;-85
2024/01/19 01:18:14;;;;;;;1.60;0.60;;;1.20;99.90;;;;;;5015659;28;20176;-85
2024/01/19 01:20:40;;;;;;;1.63;0.93;;;1.30;99.90;;;;;;5014383;28;20664;-85
2024/01/19 01:23:06;;;;;;;7.73;1.80;;;1.20;99.90;;;;;;4997828;28;20265;-85
2024/01/19 01:25:35;;;;;;;0.50;0.50;;;1.10;99.90;;;;;;4998905;28;20186;-85
2024/01/19 01:28:01;;;;;;;0.40;0.40;;;1.00;99.90;;;;;;5014487;28;20213;-85
2024/01/19 01:30:26;;;;;;;0.30;0.30;;;1.10;99.90;;;;;;5014680;28;20271;-86
2024/01/19 01:32:52;;;;;;;0.30;0.30;;;1.20;99.90;;;;;;5014670;28;20653;-86
2024/01/19 01:35:18;;;;;;;0.30;0.30;;;1.80;99.90;;;;;;5013974;28;20278;-87
2024/01/19 01:37:44;;;;;;;0.30;0.30;;;2.00;99.90;;;;;;4997688;28;20188;-84
2024/01/19 01:40:11;;;;;;;0.30;0.30;;;2.10;99.90;;;;;;4997406;28;20208;-85
2024/01/19 01:42:38;;;;;;;0.30;0.30;;;2.00;99.90;;;;;;5013958;28;20241;-84
2024/01/19 01:45:04;;;;;;;0.30;0.30;;;2.10;99.90;;;;;;5014882;28;20318;-84
2024/01/19 01:47:30;;;;;;;0.40;0.40;;;2.20;99.90;;;;;;4998095;28;20180;-86
2024/01/19 01:49:57;;;;;;;0.30;0.30;;;2.40;99.90;;;;;;5014173;28;20602;-85
2024/01/19 01:52:22;;;;;;;0.30;0.30;;;2.40;99.90;;;;;;4997619;28;20497;-85
2024/01/19 01:54:52;;;;;;;0.20;0.20;;;2.50;99.90;;;;;;5013910;28;20318;-85
2024/01/19 01:57:20;;;;;;;0.83;0.83;;;2.80;99.90;;;;;;5013684;28;20182;-85
2024/01/19 01:59:47;;;;;;;0.30;0.30;;;2.70;99.90;;;;;;5014518;28;20681;-87
2024/01/19 02:02:13;;;;;;;0.30;0.30;;;2.70;99.90;;;;;;5014557;28;20184;-84
2024/01/19 02:04:40;;;;;;;0.70;0.70;;;2.70;99.90;;;;;;5013672;28;20175;-86
2024/01/19 02:07:06;;;;;;;0.30;0.30;;;2.70;99.90;;;;;;5013431;28;20771;-86
2024/01/19 02:09:32;;;;;;;0.30;0.30;;;2.80;99.90;;;;;;4998073;28;20191;-87
2024/01/19 02:11:58;;;;;;;0.40;0.40;;;2.80;99.90;;;;;;5013400;28;20249;-85
2024/01/19 02:14:24;;;;;;;0.37;0.37;;;2.80;99.90;;;;;;4996680;28;20215;-86
2024/01/19 02:16:50;;;;;;;0.30;0.30;;;2.70;99.90;;;;;;5013488;28;20186;-86
2024/01/19 02:19:16;;;;;;;0.30;0.30;;;2.80;99.90;;;;;;5013130;28;20619;-87
2024/01/19 02:21:42;;;;;;;0.33;0.33;;;3.00;99.90;;;;;;5013316;28;20203;-87
2024/01/19 02:24:15;;;;;;;0.30;0.30;;;3.00;99.90;;;;;;5013169;28;20635;-85
2024/01/19 02:26:41;;;;;;;0.30;0.30;;;3.10;99.90;;;;;;4997005;28;20282;-86
2024/01/19 02:29:07;;;;;;;0.27;0.27;;;2.80;99.90;;;;;;5012783;28;20179;-85
2024/01/19 02:31:33;;;;;;;1.03;0.43;;;2.40;99.90;;;;;;5013407;28;20245;-85
2024/01/19 02:33:59;;;;;;;0.30;0.30;;;2.30;99.90;;;;;;5013306;28;20542;-85
2024/01/19 02:36:25;;;;;;;0.30;0.30;;;2.30;99.90;;;;;;5014155;28;20492;-88
2024/01/19 02:38:51;;;;;;;0.30;0.30;;;2.00;99.90;;;;;;5013403;28;20194;-87
2024/01/19 02:41:17;;;;;;;0.30;0.30;;;2.00;99.90;;;;;;5014415;28;20727;-86
2024/01/19 02:43:42;;;;;;;0.40;0.40;;;2.00;99.90;;;;;;4996904;28;20533;-86
2024/01/19 02:46:09;;;;;;;0.30;0.30;;;1.90;99.90;;;;;;5013742;28;20264;-87
2024/01/19 02:48:35;;;;;;;0.30;0.30;;;1.80;99.90;;;;;;5013033;28;20185;-85
2024/01/19 02:51:01;;;;;;;0.30;0.30;;;1.70;99.90;;;;;;5012855;28;20187;-86
2024/01/19 02:53:26;;;;;;;0.30;0.30;;;1.90;99.90;;;;;;5012877;28;20179;-87
2024/01/19 02:55:52;;;;;;;0.30;0.30;;;2.00;99.90;;;;;;5013106;28;20630;-85
2024/01/19 02:58:18;;;;;;;0.20;0.20;;;1.90;99.90;;;;;;4996808;28;20183;-86
2024/01/19 03:00:44;;;;;;;0.30;0.30;;;2.00;99.90;;;;;;4997161;28;20586;-86
2024/01/19 03:03:09;;;;;;;0.30;0.30;;;2.10;99.90;;;;;;5013499;28;20191;-85
2024/01/19 03:05:35;;;;;;;0.50;0.50;;;2.00;99.90;;;;;;4996431;28;20183;-86
2024/01/19 03:08:02;;;;;;;0.20;0.20;;;2.20;99.90;;;;;;5012624;28;20179;-86
2024/01/19 03:10:27;;;;;;;0.40;0.40;;;2.30;99.90;;;;;;5012637;28;20183;-85
2024/01/19 03:12:53;;;;;;;0.43;0.33;;;2.60;99.90;;;;;;5012565;28;20241;-84
2024/01/19 03:15:19;;;;;;;0.30;0.30;;;2.50;99.90;;;;;;4996801;28;20190;-85
2024/01/19 03:17:44;;;;;;;0.37;0.37;;;2.60;99.90;;;;;;4996328;28;20187;-84
2024/01/19 03:20:10;;;;;;;0.30;0.30;;;2.60;99.90;;;;;;4996791;28;20215;-85
2024/01/19 03:22:36;;;;;;;0.37;0.37;;;2.60;99.90;;;;;;5012553;28;20608;-87
2024/01/19 03:25:02;;;;;;;0.30;0.30;;;2.60;99.90;;;;;;4996135;28;20199;-83
2024/01/19 03:27:28;;;;;;;0.43;0.43;;;2.70;99.90;;;;;;5012697;28;20184;-84
2024/01/19 03:29:55;;;;;;;0.30;0.30;;;2.90;99.90;;;;;;4996234;28;20696;-84
2024/01/19 03:32:21;;;;;;;0.20;0.20;;;2.90;99.90;;;;;;5013677;28;20508;-84
2024/01/19 03:34:47;;;;;;;0.50;0.50;;;2.60;99.90;;;;;;4996522;28;20190;-85
2024/01/19 03:37:13;;;;;;;0.30;0.30;;;2.50;99.90;;;;;;4996853;28;20183;-86
2024/01/19 03:39:39;;;;;;;0.40;0.40;;;2.20;99.90;;;;;;5013270;28;20182;-86
2024/01/19 03:42:05;;;;;;;0.30;0.30;;;2.20;99.90;;;;;;4996196;28;20290;-85
2024/01/19 03:44:31;;;;;;;0.30;0.30;;;2.20;99.90;;;;;;5013828;28;20486;-84
2024/01/19 03:46:59;;;;;;;0.30;0.30;;;2.30;99.90;;;;;;5012300;28;20187;-84
2024/01/19 03:49:25;;;;;;;0.40;0.40;;;2.10;99.90;;;;;;5012477;28;20188;-86
2024/01/19 03:51:58;;;;;;;0.40;0.40;;;2.20;99.90;;;;;;5012654;28;20216;-85
2024/01/19 03:54:24;;;;;;;0.20;0.20;;;2.00;99.90;;;;;;5011937;28;20650;-84
2024/01/19 03:56:50;;;;;;;0.20;0.20;;;2.10;99.90;;;;;;5012355;28;20259;-84
2024/01/19 03:59:15;;;;;;;0.30;0.30;;;2.00;99.90;;;;;;4995870;28;20716;-85
2024/01/19 04:01:41;;;;;;;0.30;0.30;;;2.00;99.90;;;;;;4995553;28;20203;-84
2024/01/19 04:04:07;;;;;;;0.30;0.30;;;2.00;99.90;;;;;;5012141;28;20241;-85
2024/01/19 04:06:33;;;;;;;0.30;0.30;;;2.00;99.90;;;;;;5014389;28;20285;-85
2024/01/19 04:08:58;;;;;;;0.30;0.30;;;2.00;99.90;;;;;;5000356;28;20571;-83
2024/01/19 04:11:24;;;;;;;0.30;0.30;;;2.00;99.90;;;;;;5018259;28;20225;-85
2024/01/19 04:13:50;;;;;;;1.20;0.60;;;2.10;99.90;;;;;;5018222;28;20669;-84
2024/01/19 04:16:15;;;;;;;2.53;1.33;;;2.10;99.90;;;;;;4985756;28;20258;-84
2024/01/19 04:18:41;;;;;;;0.40;0.40;;;2.10;99.90;;;;;;5001012;28;20501;-85
2024/01/19 04:21:07;;;;;;;4.37;0.83;;;2.10;99.90;;;;;;5017309;28;20701;-85
2024/01/19 04:23:34;;;;;;;0.30;0.30;;;2.10;99.90;;;;;;5000031;28;20207;-84
2024/01/19 04:26:00;;;;;;;0.40;0.40;;;2.00;99.90;;;;;;5015267;28;20191;-84
2024/01/19 04:28:25;;;;;;;0.30;0.30;;;1.90;99.90;;;;;;4999168;28;20184;-86
2024/01/19 04:30:51;;;;;;;0.77;0.77;;;2.00;99.90;;;;;;5015778;28;20624;-85
2024/01/19 04:33:17;;;;;;;0.30;0.30;;;1.90;99.90;;;;;;5015435;28;20189;-86
2024/01/19 04:35:42;;;;;;;0.30;0.30;;;1.90;99.90;;;;;;4998991;28;20608;-86
2024/01/19 04:38:08;;;;;;;0.30;0.30;;;1.80;99.90;;;;;;5015035;28;20312;-86
2024/01/19 04:40:34;;;;;;;0.40;0.40;;;1.90;99.90;;;;;;5015355;28;20211;-87
2024/01/19 04:43:00;;;;;;;0.50;0.50;;;1.80;99.90;;;;;;5015583;28;20195;-86
2024/01/19 04:45:25;;;;;;;1.40;0.50;;;1.90;99.90;;;;;;5015435;28;20262;-84
2024/01/19 04:47:51;;;;;;;25.07;0.93;;;1.80;99.90;;;;;;5014800;28;20628;-86
2024/01/19 04:50:17;;;;;;;0.30;0.30;;;1.80;99.90;;;;;;5017676;28;20188;-85
2024/01/19 04:52:43;;;;;;;0.30;0.30;;;1.70;99.90;;;;;;5001185;28;20172;-84
2024/01/19 04:55:09;;;;;;;0.47;0.40;;;1.70;99.90;;;;;;5018348;28;20187;-84
2024/01/19 04:57:34;;;;;;;0.30;0.30;;;1.80;99.90;;;;;;5015790;28;20631;-85
2024/01/19 05:00:00;;;;;;;0.30;0.30;;;1.80;99.90;;;;;;5015125;28;20636;-85
2024/01/19 05:02:26;;;;;;;0.30;0.30;;;1.90;99.90;;;;;;5015419;28;20187;-85
2024/01/19 05:04:52;;;;;;;0.30;0.30;;;1.80;99.90;;;;;;4999582;28;20183;-85
2024/01/19 05:07:18;;;;;;;0.97;0.97;;;1.90;99.90;;;;;;4999887;28;20235;-87
2024/01/19 05:09:44;;;;;;;1.30;0.60;;;1.90;99.90;;;;;;5000384;28;20636;-87
2024/01/19 05:12:10;;;;;;;0.27;0.27;;;2.10;99.90;;;;;;5016635;28;20192;-87
2024/01/19 05:14:36;;;;;;;0.60;0.60;;;2.20;99.90;;;;;;4998929;28;20188;-86
2024/01/19 05:17:02;;;;;;;0.60;0.60;;;2.00;99.90;;;;;;4998575;28;20210;-87
2024/01/19 05:19:28;;;;;;;0.40;0.40;;;2.30;99.90;;;;;;5015249;28;20211;-87
2024/01/19 05:21:54;;;;;;;1.83;1.80;;;2.40;99.90;;;;;;5000969;28;20211;-86
2024/01/19 05:24:20;;;;;;;3.13;3.03;;;2.20;99.90;;;;;;5014865;28;20253;-87
2024/01/19 05:26:46;;;;;;;0.30;0.30;;;2.50;99.90;;;;;;4998444;28;20528;-86
2024/01/19 05:29:12;;;;;;;0.30;0.30;;;2.50;99.90;;;;;;4998492;28;20193;-88
2024/01/19 05:31:37;;;;;;;0.77;0.77;;;2.40;99.90;;;;;;5015583;28;20203;-87
2024/01/19 05:34:03;;;;;;;0.30;0.30;;;2.60;99.90;;;;;;4999058;28;20266;-87
2024/01/19 05:36:29;;;;;;;0.30;0.30;;;2.50;99.90;;;;;;5000803;28;20658;-87
2024/01/19 05:38:55;;;;;;;0.40;0.40;;;2.60;99.90;;;;;;4998199;28;20630;-86
2024/01/19 05:41:21;;;;;;;0.20;0.20;;;2.80;99.90;;;;;;4998035;28;20257;-86
2024/01/19 05:43:47;;;;;;;0.20;0.20;;;2.80;99.90;;;;;;5014820;28;20270;-87
2024/01/19 05:46:16;;;;;;;0.90;0.90;;;2.80;99.90;;;;;;5014435;28;20262;-86
2024/01/19 05:48:41;;;;;;;0.30;0.30;;;2.80;99.90;;;;;;5013695;28;20184;-87
2024/01/19 05:51:16;;;;;;;0.40;0.40;;;2.80;99.90;;;;;;5015161;28;20250;-87
2024/01/19 05:53:42;;;;;;;0.30;0.30;;;2.90;99.90;;;;;;5015130;28;20617;-85
2024/01/19 05:56:07;;;;;;;0.30;0.30;;;2.80;99.90;;;;;;4998212;28;20240;-88
2024/01/19 05:58:33;;;;;;;0.27;0.27;;;2.70;99.90;;;;;;5014832;28;20187;-85
2024/01/19 06:01:02;;;;;;;0.23;0.23;;;2.70;99.90;;;;;;4997377;28;20211;-86
2024/01/19 06:03:29;;;;;;;0.83;0.83;;;2.60;99.90;;;;;;5013656;28;20186;-86
2024/01/19 06:05:56;;;;;;;0.30;0.30;;;2.40;99.90;;;;;;5013394;28;20278;-87
2024/01/19 06:08:22;;;;;;;0.30;0.30;;;2.40;99.90;;;;;;5013742;28;20191;-86
2024/01/19 06:10:51;;;;;;;0.30;0.30;;;2.30;99.90;;;;;;4997133;28;20187;-86
2024/01/19 06:13:17;;;;;;;0.40;0.40;;;2.40;99.90;;;;;;5013408;28;20569;-86
2024/01/19 06:15:43;;;;;;;1.70;1.03;;;2.30;99.90;;;;;;5013279;28;20194;-86
2024/01/19 06:18:08;;;;;;;0.77;0.47;;;2.40;99.90;;;;;;5014235;28;20171;-86
2024/01/19 06:20:40;;;;;;;0.60;0.60;;;2.40;99.90;;;;;;5013174;28;20226;-86
2024/01/19 06:23:06;;;;;;;0.40;0.40;;;2.40;99.90;;;;;;5013856;28;20175;-87
2024/01/19 06:25:32;;;;;;;0.30;0.30;;;2.50;99.90;;;;;;5013435;28;20175;-86
2024/01/19 06:28:00;;;;;;;9.20;0.60;;;2.40;99.90;;;;;;5012515;28;20186;-87
2024/01/19 06:30:26;;;;;;;0.23;0.23;;;2.40;99.90;;;;;;4996583;28;20723;-87
2024/01/19 06:32:52;;;;;;;21.77;1.53;;;2.50;99.90;;;;;;4996452;28;20262;-86
2024/01/19 06:35:18;;;;;;;0.43;0.43;;;2.50;99.90;;;;;;5013035;28;20199;-86
2024/01/19 06:37:43;;;;;;;0.30;0.30;;;2.60;99.90;;;;;;5013558;28;20242;-87
2024/01/19 06:40:10;;;;;;;0.53;0.53;;;2.50;99.90;;;;;;4996398;28;20187;-87
2024/01/19 06:42:37;;;;;;;0.33;0.33;;;2.40;99.90;;;;;;5013445;28;20175;-87
2024/01/19 06:45:03;;;;;;;0.30;0.30;;;2.50;99.90;;;;;;4996295;28;20315;-87
2024/01/19 06:47:29;;;;;;;0.30;0.30;;;2.50;99.90;;;;;;4997163;28;20541;-87
2024/01/19 06:49:55;;;;;;;0.30;0.30;;;2.40;99.90;;;;;;4996758;28;20183;-88
2024/01/19 06:52:20;;;;;;;0.30;0.30;;;2.40;99.90;;;;;;5012981;28;20650;-84
2024/01/19 06:54:46;;;;;;;0.30;0.30;;;2.50;99.90;;;;;;5013191;28;20183;-86
2024/01/19 06:57:12;;;;;;;0.43;0.43;;;2.40;99.90;;;;;;5013510;28;20175;-86
2024/01/19 06:59:38;;;;;;;0.27;0.27;;;2.60;99.90;;;;;;5013909;28;20300;-85
2024/01/19 07:02:04;;;;;;;0.30;0.30;;;2.60;99.90;;;;;;5012671;28;20264;-85
2024/01/19 07:04:30;;;;;;;0.90;0.90;;;2.50;99.90;;;;;;4996064;28;20188;-83
2024/01/19 07:06:56;;;;;;;0.30;0.30;;;2.50;99.90;;;;;;5012393;28;20238;-83
2024/01/19 07:09:22;;;;;;;1.90;1.83;;;2.60;99.90;;;;;;5012861;28;20207;-88
2024/01/19 07:11:48;;;;;;;2.20;1.27;;;2.70;99.90;;;;;;4996729;28;20190;-87
2024/01/19 07:14:13;;;;;;;1.60;1.50;;;2.70;99.90;;;;;;5013228;28;20179;-87
2024/01/19 07:16:43;;;;;;;8.13;0.97;;;2.80;99.90;;;;;;5014459;28;20473;-91
2024/01/19 07:19:12;;;;;;;0.30;0.30;;;2.70;99.90;;;;;;4996771;28;20180;-87
2024/01/19 07:21:43;;;;;;;0.30;0.30;;;2.70;99.90;;;;;;5012579;28;20253;-87
2024/01/19 07:24:11;;;;;;;0.30;0.30;;;2.70;99.90;;;;;;5013452;28;20191;-86
2024/01/19 07:26:38;;;;;;;0.30;0.30;;;2.80;99.90;;;;;;4997056;28;20248;-87
2024/01/19 07:29:06;;;;;;;0.37;0.37;;;2.90;99.90;;;;;;5014862;28;20183;-86
2024/01/19 07:31:35;;;;;;;0.30;0.30;;;3.00;99.90;;;;;;4997306;28;20187;-86
2024/01/19 07:34:02;;;;;;;0.60;0.60;;;3.10;99.90;;;;;;5012870;28;20187;-87
2024/01/19 07:36:37;;;;;;;0.40;0.40;;;3.20;99.90;;;;;;4997553;28;20484;-88
2024/01/19 07:39:04;;;;;;;0.73;0.73;;;3.10;99.90;;;;;;5013538;28;20180;-86
2024/01/19 07:41:31;;;;;;;1.53;1.17;;;3.10;99.90;;;;;;5001118;28;20219;-88
2024/01/19 07:43:57;;;;;;;0.47;0.47;;;3.10;99.90;;;;;;5016648;28;20205;-87
2024/01/19 07:46:23;;;;;;;0.80;0.80;;;2.90;99.90;;;;;;5016815;28;20239;-86
2024/01/19 07:48:51;;;;;;;0.30;0.30;;;2.90;99.90;;;;;;5017094;28;20261;-87
2024/01/19 07:51:18;;;;;;;1.23;1.07;;;2.90;99.90;;;;;;5000217;28;20187;-87
2024/01/19 07:53:44;;;;;;;0.30;0.30;;;2.80;99.90;;;;;;5016811;28;20652;-87
2024/01/19 07:56:10;;;;;;;0.30;0.30;;;2.80;99.90;;;;;;5000309;28;20180;-85
2024/01/19 07:58:35;;;;;;;0.40;0.40;;;2.80;99.90;;;;;;5016883;28;20180;-87
2024/01/19 08:01:02;;;;;;;0.33;0.33;;;2.80;99.90;;;;;;4999655;28;20689;-85
2024/01/19 08:03:31;;;;;;;10.67;2.07;;;2.80;99.90;;;;;;5015946;28;20179;-87
2024/01/19 08:05:57;;;;;;;0.40;0.40;;;2.80;99.90;;;;;;4999582;28;20219;-87
2024/01/19 08:08:23;;;;;;;0.30;0.30;;;2.90;99.90;;;;;;5000349;28;20261;-87
2024/01/19 08:10:51;;;;;;;3.40;0.97;;;2.90;99.90;;;;;;5017618;28;20208;-87
2024/01/19 08:13:18;;;;;;;0.50;0.50;;;3.00;99.90;;;;;;5015914;28;20179;-88
2024/01/19 08:15:50;;;;;;;1.03;0.43;;;3.30;99.90;;;;;;4999539;28;20184;-86
2024/01/19 08:18:16;;;;;;;13.63;1.03;;;3.70;99.90;;;;;;5016405;28;20203;-87
2024/01/19 08:20:44;;;;;;;0.30;0.30;;;4.00;99.90;;;;;;5000385;28;20217;-88
2024/01/19 08:23:10;;;;;;;0.30;0.30;;;4.00;99.90;;;;;;4999135;28;20602;-88
2024/01/19 08:25:35;;;;;;;0.30;0.30;;;4.00;99.90;;;;;;4999612;28;20195;-89
2024/01/19 08:28:02;;;;;;;0.40;0.40;;;3.90;99.90;;;;;;4998963;28;20195;-86
2024/01/19 08:30:27;;;;;;;0.97;0.97;;;4.00;99.90;;;;;;5015276;28;20278;-85
2024/01/19 08:32:53;;;;;;;5.40;1.07;;;4.00;99.90;;;;;;5016627;28;20203;-85
2024/01/19 08:35:22;;;;;;;0.77;0.77;;;4.00;99.90;;;;;;5015311;28;20187;-86
2024/01/19 08:37:48;;;;;;;0.77;0.77;;;4.00;99.90;;;;;;5015720;28;20187;-85
2024/01/19 08:40:14;;;;;;;0.30;0.30;;;4.00;99.90;;;;;;4999184;28;20184;-90
2024/01/19 08:42:43;;;;;;;0.50;0.50;;;4.00;99.90;;;;;;4999997;28;20176;-85
2024/01/19 08:45:09;;;;;;;0.30;0.30;;;4.00;99.90;;;;;;4999376;28;20739;-86
2024/01/19 08:47:37;;;;;;;0.40;0.40;;;4.00;99.90;;;;;;5015269;28;20188;-87
2024/01/19 08:50:03;;;;;;;0.67;0.67;;;4.00;99.90;;;;;;5015418;28;20172;-86
2024/01/19 08:52:29;;;;;;;0.30;0.30;;;4.10;99.90;;;;;;5014473;28;20278;-86
2024/01/19 08:54:55;;;;;;;0.30;0.30;;;4.10;99.90;;;;;;4998842;28;20179;-86
2024/01/19 08:57:21;;;;;;;0.30;0.30;;;4.00;99.90;;;;;;4998600;28;20180;-86
2024/01/19 08:59:47;;;;;;;0.30;0.30;;;4.00;99.90;;;;;;5014705;28;20186;-86
2024/01/19 09:02:13;;;;;;;13.47;0.77;;;4.00;99.90;;;;;;4998964;28;20215;-86
2024/01/19 09:04:38;;;;;;;1.47;1.37;;;4.00;99.90;;;;;;5014692;28;20620;-87
2024/01/19 09:07:04;;;;;;;0.30;0.30;;;4.10;99.90;;;;;;5013929;28;20664;-86
2024/01/19 09:09:30;;;;;;;0.30;0.30;;;4.20;99.90;;;;;;5015235;28;20314;-86
2024/01/19 09:11:57;;;;;;;6.90;2.00;;;4.30;99.90;;;;;;5014849;28;20195;-87
2024/01/19 09:14:25;;;;;;;0.67;0.67;;;4.50;99.90;;;;;;5014433;28;20187;-86
2024/01/19 09:16:55;;;;;;;0.30;0.30;;;4.60;99.90;;;;;;5000054;28;20168;-86
2024/01/19 09:19:21;;;;;;;0.30;0.30;;;4.80;99.90;;;;;;4998213;28;20215;-86
2024/01/19 09:21:47;;;;;;;0.83;0.77;;;4.60;99.90;;;;;;4998036;28;20286;-86
2024/01/19 09:24:13;;;;;;;0.40;0.40;;;4.60;99.90;;;;;;5016658;28;20226;-87
2024/01/19 09:26:40;;;;;;;0.63;0.63;;;4.50;99.90;;;;;;5017039;28;20187;-85
2024/01/19 09:29:08;;;;;;;0.43;0.43;;;4.60;99.90;;;;;;5019775;28;20182;-88
2024/01/19 09:31:46;;;;;;;0.40;0.40;;;4.60;99.90;;;;;;5036358;28;20187;-88
2024/01/19 09:34:13;;;;;;;0.40;0.40;;;4.60;99.90;;;;;;4998304;28;20250;-85
2024/01/19 09:36:39;;;;;;;0.30;0.30;;;4.50;99.90;;;;;;5013975;28;20172;-85
2024/01/19 09:39:06;;;;;;;0.30;0.30;;;4.60;99.90;;;;;;5013877;28;20265;-86
2024/01/19 09:41:49;;;;;;;0.30;0.30;;;4.60;99.90;;;;;;5014126;28;20222;-86
2024/01/19 09:44:19;;;;;;;0.40;0.40;;;4.50;99.90;;;;;;5014549;28;20168;-85
2024/01/19 09:46:51;;;;;;;2.77;0.73;;;4.50;99.90;;;;;;5013881;28;20183;-85
2024/01/19 09:49:22;;;;;;;0.30;0.30;;;4.60;99.90;;;;;;5014172;28;20640;-85
2024/01/19 09:52:16;;;;;;;2.63;0.77;;;4.70;99.90;;;;;;5013871;28;20643;-85
2024/01/19 09:54:42;;;;;;;0.40;0.40;;;4.60;99.90;;;;;;5013634;28;20287;-85
2024/01/19 09:57:08;;;;;;;0.40;0.40;;;4.70;99.90;;;;;;4997335;28;20672;-85
2024/01/19 09:59:34;;;;;;;0.23;0.23;;;4.60;99.90;;;;;;5014093;28;20180;-85
2024/01/19 10:02:00;;;;;;;0.30;0.30;;;4.60;99.90;;;;;;4996818;28;20671;-86
2024/01/19 10:04:29;;;;;;;0.30;0.30;;;4.60;99.90;;;;;;5013048;28;20183;-85
2024/01/19 10:06:56;;;;;;;0.33;0.33;;;4.60;99.90;;;;;;5013761;28;20235;-85
2024/01/19 10:09:23;;;;;;;1.13;0.63;;;4.60;99.90;;;;;;5013532;28;20190;-85
2024/01/19 10:11:51;;;;;;;0.30;0.30;;;4.60;99.90;;;;;;5014303;28;20187;-86
2024/01/19 10:14:20;;;;;;;0.97;0.97;;;4.70;99.90;;;;;;5014647;28;20226;-85
2024/01/19 10:16:52;;;;;;;0.53;0.53;;;4.80;99.90;;;;;;5013285;28;20690;-86
2024/01/19 10:19:22;;;;;;;0.97;0.73;;;4.80;99.90;;;;;;5013703;28;20492;-83
2024/01/19 10:21:53;;;;;;;0.40;0.40;;;4.80;99.90;;;;;;5013686;28;20199;-88
2024/01/19 10:24:22;;;;;;;25.37;2.00;;;4.70;99.90;;;;;;4998156;28;20229;-87
2024/01/19 10:26:53;;;;;;;0.60;0.50;;;4.80;99.90;;;;;;5013554;28;20179;-89
2024/01/19 10:29:19;;;;;;;0.30;0.30;;;4.90;99.90;;;;;;4997099;28;20180;-89
2024/01/19 10:31:47;;;;;;;10.83;1.00;;;4.90;99.90;;;;;;5014346;28;20188;-89
2024/01/19 10:34:31;;;;;;;0.73;0.73;;;4.90;99.90;;;;;;4997264;28;20554;-87
2024/01/19 10:36:57;;;;;;;1.13;1.13;;;5.00;99.90;;;;;;4996906;28;20172;-87
2024/01/19 10:39:31;;;;;;;0.30;0.30;;;5.00;99.90;;;;;;5014485;28;20194;-87
2024/01/19 10:42:05;;;;;;;0.40;0.40;;;5.10;99.90;;;;;;5014325;28;20297;-88
2024/01/19 10:44:35;;;;;;;0.53;0.53;;;5.10;99.90;;;;;;5012838;28;20175;-89
2024/01/19 10:47:03;;;;;;;1.33;0.60;;;5.10;99.90;;;;;;5012899;28;20186;-90
2024/01/19 10:49:29;;;;;;;0.87;0.67;;;5.10;99.90;;;;;;4996817;28;20191;-87
2024/01/19 10:51:56;;;;;;;0.30;0.30;;;5.10;99.90;;;;;;4996897;28;20176;-88
2024/01/19 10:54:25;;;;;;;0.30;0.30;;;5.10;99.90;;;;;;5013435;28;20176;-88
2024/01/19 10:57:09;;;;;;;0.60;0.60;;;5.10;99.90;;;;;;5013356;28;20180;-87
2024/01/19 10:59:35;;;;;;;0.40;0.40;;;5.20;99.90;;;;;;5013336;28;20241;-88
2024/01/19 11:02:04;;;;;;;0.50;0.50;;;5.10;99.90;;;;;;5012912;28;20211;-89
2024/01/19 11:04:33;;;;;;;13.60;1.37;;;5.10;99.90;;;;;;4996664;28;20191;-89
2024/01/19 11:06:59;;;;;;;0.83;0.83;;;5.00;99.90;;;;;;4996439;28;20231;-88
2024/01/19 11:09:25;;;;;;;1.90;1.43;;;5.10;99.90;;;;;;5012881;28;20692;-88
2024/01/19 11:11:55;;;;;;;0.80;0.80;;;5.10;99.90;;;;;;4996262;28;20188;-87
2024/01/19 11:14:24;;;;;;;0.53;0.53;;;5.00;99.90;;;;;;5012451;28;20217;-88
2024/01/19 11:16:56;;;;;;;1.20;1.20;;;5.00;99.90;;;;;;5013183;28;20191;-90
2024/01/19 11:19:23;;;;;;;0.40;0.40;;;5.00;99.90;;;;;;5012853;28;20618;-88
2024/01/19 11:21:49;;;;;;;0.43;0.43;;;5.00;99.90;;;;;;5012531;28;20564;-89
2024/01/19 11:24:21;;;;;;;0.30;0.30;;;5.00;99.90;;;;;;5012975;28;20183;-89
2024/01/19 11:27:09;;;;;;;0.60;0.60;;;5.10;99.90;;;;;;5013047;28;20164;-88
2024/01/19 11:29:44;;;;;;;0.40;0.40;;;5.00;99.90;;;;;;5013067;28;20164;-89
2024/01/19 11:32:11;;;;;;;0.70;0.70;;;5.00;99.90;;;;;;5013970;28;20693;-89
2024/01/19 11:34:52;;;;;;;0.77;0.77;;;5.00;99.90;;;;;;5013195;28;20273;-87
2024/01/19 11:37:44;;;;;;;0.60;0.60;;;5.10;99.90;;;;;;5013075;28;20258;-89
2024/01/19 11:40:30;;;;;;;0.50;0.50;;;5.00;99.90;;;;;;5015071;28;20184;-90
2024/01/19 11:42:56;;;;;;;2.50;1.77;;;5.10;99.90;;;;;;5028940;28;20191;-90
2024/01/19 11:45:28;;;;;;;0.30;0.30;;;5.00;99.90;;;;;;5000553;28;20188;-88
2024/01/19 11:47:57;;;;;;;0.40;0.40;;;5.00;99.90;;;;;;5013353;28;20234;-88
2024/01/19 11:50:46;;;;;;;0.40;0.40;;;5.00;99.90;;;;;;5012930;28;20539;-89
2024/01/19 11:53:13;;;;;;;0.53;0.47;;;5.00;99.90;;;;;;5013860;28;20183;-88
2024/01/19 11:55:50;;;;;;;0.43;0.43;;;5.00;99.90;;;;;;5012774;28;20665;-88
2024/01/19 11:58:27;;;;;;;0.40;0.40;;;5.10;99.90;;;;;;4996252;28;20230;-89
2024/01/19 12:00:55;;;;;;;7.00;0.63;;;5.10;99.90;;;;;;4996238;28;20211;-87
2024/01/19 12:03:21;;;;;;;0.60;0.60;;;5.20;99.90;;;;;;5012271;28;20628;-88
2024/01/19 12:05:48;;;;;;;0.30;0.30;;;5.20;99.90;;;;;;4995916;28;20278;-87
2024/01/19 12:08:17;;;;;;;0.60;0.60;;;5.30;99.90;;;;;;5012280;28;20757;-89
2024/01/19 12:10:43;;;;;;;0.30;0.30;;;5.30;99.90;;;;;;4996532;28;20195;-89
2024/01/19 12:13:09;;;;;;;0.20;0.20;;;5.30;99.90;;;;;;5012224;28;20668;-86
2024/01/19 12:15:45;;;;;;;0.30;0.30;;;5.30;99.90;;;;;;5013272;28;20522;-90
2024/01/19 12:18:11;;;;;;;0.70;0.70;;;5.30;99.90;;;;;;5012631;28;20214;-88
2024/01/19 12:20:37;;;;;;;0.20;0.20;;;5.30;99.90;;;;;;5012154;28;20200;-88
2024/01/19 12:23:06;;;;;;;0.70;0.70;;;5.40;99.90;;;;;;5015248;28;20655;-88
2024/01/19 12:25:32;;;;;;;0.50;0.50;;;5.40;99.90;;;;;;5012146;28;20646;-90
2024/01/19 12:28:06;;;;;;;0.30;0.30;;;5.40;99.90;;;;;;4999113;28;20179;-89
2024/01/19 12:30:36;;;;;;;0.50;0.50;;;5.40;99.90;;;;;;5015647;28;20664;-87
2024/01/19 12:33:21;;;;;;;0.30;0.30;;;5.40;99.90;;;;;;5015689;28;20658;-90
2024/01/19 12:35:48;;;;;;;0.30;0.30;;;5.40;99.90;;;;;;5015754;28;20171;-89
2024/01/19 12:38:15;;;;;;;0.40;0.40;;;5.50;99.90;;;;;;4999368;28;20268;-88
2024/01/19 12:40:42;;;;;;;2.13;0.97;;;5.50;99.90;;;;;;5015419;28;20227;-87
2024/01/19 12:43:08;;;;;;;0.33;0.33;;;5.50;99.90;;;;;;5015320;28;20180;-87
2024/01/19 12:45:37;;;;;;;0.97;0.97;;;5.50;99.90;;;;;;5015177;28;20230;-87
2024/01/19 12:48:03;;;;;;;1.10;1.10;;;5.50;99.90;;;;;;4999312;28;20180;-89
2024/01/19 12:50:31;;;;;;;3.07;0.97;;;5.50;99.90;;;;;;4999484;28;20176;-91
2024/01/19 12:52:56;;;;;;;0.40;0.40;;;5.50;99.90;;;;;;4999010;28;20206;-89
2024/01/19 12:55:33;;;;;;;0.43;0.43;;;5.60;99.90;;;;;;5015512;28;20498;-89
2024/01/19 12:57:59;;;;;;;3.60;1.30;;;5.60;99.90;;;;;;5014773;28;20179;-89
2024/01/19 13:00:27;;;;;;;0.87;0.87;;;5.60;99.90;;;;;;4998763;28;20628;-90